createdAt,value
2018-03-24T00:00:08.816Z,32.93
2018-03-24T00:02:36.364Z,35.13
2018-03-24T00:05:03.902Z,33.27
2018-03-24T00:07:31.457Z,37.40
2018-03-24T00:09:58.996Z,29.87
2018-03-24T00:12:27.316Z,29.93
2018-03-24T00:14:54.848Z,30.40
2018-03-24T00:17:22.405Z,30.97
2018-03-24T00:19:49.930Z,30.87
2018-03-24T00:22:18.255Z,31.50
2018-03-24T00:24:45.784Z,32.57
2018-03-24T00:27:14.156Z,39.47
2018-03-24T00:29:42.457Z,34.70
2018-03-24T00:32:10.925Z,36.33
2018-03-24T00:34:38.466Z,35.27
2018-03-24T00:37:06.777Z,38.10
2018-03-24T00:39:34.320Z,40.67
2018-03-24T00:42:01.893Z,30.93
2018-03-24T00:44:29.427Z,36.33
2018-03-24T00:46:57.751Z,35.63
2018-03-24T00:49:25.283Z,31.73
2018-03-24T00:51:52.835Z,34.93
2018-03-24T00:54:20.399Z,37.43
2018-03-24T00:56:47.960Z,38.30
2018-03-24T00:59:15.510Z,33.90
2018-03-24T01:01:43.057Z,33.87
2018-03-24T01:04:11.352Z,33.33
2018-03-24T01:06:38.916Z,29.53
2018-03-24T01:09:06.462Z,33.57
2018-03-24T01:11:34.021Z,36.10
2018-03-24T01:14:01.554Z,28.97
2018-03-24T01:16:29.874Z,35.63
2018-03-24T01:18:57.409Z,30.87
2018-03-24T01:21:25.027Z,34.37
2018-03-24T01:23:52.573Z,33.30
2018-03-24T01:26:20.121Z,30.80
2018-03-24T01:28:47.675Z,37.23
2018-03-24T01:31:15.208Z,31.47
2018-03-24T01:33:42.765Z,32.57
2018-03-24T01:36:10.303Z,38.00
2018-03-24T01:38:38.619Z,29.40
2018-03-24T01:41:06.168Z,33.83
2018-03-24T01:43:33.733Z,39.03
2018-03-24T01:46:01.275Z,32.47
2018-03-24T01:48:28.834Z,32.20
2018-03-24T01:50:56.369Z,36.97
2018-03-24T01:53:36.451Z,40.37
2018-03-24T01:56:03.986Z,33.50
2018-03-24T01:58:32.302Z,41.57
2018-03-24T02:00:59.846Z,42.67
2018-03-24T02:03:27.402Z,39.17
2018-03-24T02:05:55.112Z,41.43
2018-03-24T02:08:22.672Z,42.87
2018-03-24T02:10:50.199Z,43.83
2018-03-24T02:13:17.771Z,47.53
2018-03-24T02:15:45.308Z,44.47
2018-03-24T02:18:12.857Z,45.40
2018-03-24T02:20:40.384Z,44.93
2018-03-24T02:23:08.696Z,43.90
2018-03-24T02:25:36.229Z,45.97
2018-03-24T02:28:04.545Z,44.80
2018-03-24T02:30:32.083Z,41.53
2018-03-24T02:32:59.637Z,48.60
2018-03-24T02:35:27.176Z,42.40
2018-03-24T02:37:55.498Z,42.97
2018-03-24T02:40:23.068Z,52.03
2018-03-24T02:42:50.664Z,46.17
2018-03-24T02:45:18.964Z,50.13
2018-03-24T02:47:46.501Z,54.10
2018-03-24T02:50:14.809Z,47.50
2018-03-24T02:52:42.351Z,45.23
2018-03-24T02:55:09.918Z,44.40
2018-03-24T02:57:37.452Z,54.70
2018-03-24T03:00:05.797Z,43.47
2018-03-24T03:02:33.346Z,48.33
2018-03-24T03:05:00.897Z,45.73
2018-03-24T03:07:28.427Z,47.37
2018-03-24T03:09:55.981Z,48.17
2018-03-24T03:12:23.509Z,47.43
2018-03-24T03:14:51.057Z,42.27
2018-03-24T03:17:18.605Z,44.43
2018-03-24T03:19:46.169Z,53.87
2018-03-24T03:22:13.713Z,44.27
2018-03-24T03:24:41.272Z,45.33
2018-03-24T03:27:08.843Z,52.43
2018-03-24T03:29:36.375Z,59.77
2018-03-24T03:32:04.756Z,50.63
2018-03-24T03:34:32.297Z,52.17
2018-03-24T03:36:59.833Z,49.87
2018-03-24T03:39:28.137Z,48.70
2018-03-24T03:41:55.693Z,44.73
2018-03-24T03:44:23.226Z,51.40
2018-03-24T03:46:51.546Z,59.67
2018-03-24T03:49:19.077Z,61.03
2018-03-24T03:51:46.632Z,75.70
2018-03-24T03:54:14.161Z,61.93
2018-03-24T03:56:41.717Z,74.50
2018-03-24T03:59:09.254Z,61.77
2018-03-24T04:01:36.818Z,73.87
2018-03-24T04:04:04.377Z,67.03
2018-03-24T04:06:31.929Z,64.90
2018-03-24T04:08:59.466Z,81.70
2018-03-24T04:11:27.030Z,69.17
2018-03-24T04:13:54.574Z,72.83
2018-03-24T04:16:22.125Z,76.63
2018-03-24T04:18:49.679Z,87.33
2018-03-24T04:21:17.224Z,74.83
2018-03-24T04:23:45.516Z,75.23
2018-03-24T04:26:13.048Z,74.50
2018-03-24T04:28:40.597Z,87.93
2018-03-24T04:31:08.143Z,95.90
2018-03-24T04:33:35.694Z,92.03
2018-03-24T04:36:03.237Z,104.17
2018-03-24T04:38:30.801Z,101.17
2018-03-24T04:40:58.338Z,94.57
2018-03-24T04:43:25.906Z,94.27
2018-03-24T04:45:53.445Z,111.13
2018-03-24T04:48:21.003Z,96.97
2018-03-24T04:50:48.546Z,118.13
2018-03-24T04:53:16.861Z,103.57
2018-03-24T04:55:44.409Z,108.93
2018-03-24T04:58:11.958Z,113.43
2018-03-24T05:00:39.504Z,110.97
2018-03-24T05:03:07.063Z,117.83
2018-03-24T05:05:34.604Z,141.53
2018-03-24T05:08:02.934Z,103.90
2018-03-24T05:10:30.473Z,129.00
2018-03-24T05:12:58.023Z,113.93
2018-03-24T05:15:25.556Z,139.70
2018-03-24T05:17:53.874Z,134.40
2018-03-24T05:20:21.417Z,147.10
2018-03-24T05:22:48.977Z,168.27
2018-03-24T05:25:16.515Z,153.90
2018-03-24T05:27:44.841Z,146.63
2018-03-24T05:30:12.377Z,125.47
2018-03-24T05:32:39.909Z,130.57
2018-03-24T05:35:08.234Z,147.80
2018-03-24T05:37:35.795Z,191.30
2018-03-24T05:40:03.353Z,194.97
2018-03-24T05:42:30.897Z,175.40
2018-03-24T05:44:58.465Z,186.77
2018-03-24T05:47:26.004Z,206.73
2018-03-24T05:49:53.571Z,218.73
2018-03-24T05:52:21.946Z,178.33
2018-03-24T05:54:49.501Z,168.00
2018-03-24T05:57:17.051Z,156.97
2018-03-24T05:59:44.614Z,138.43
2018-03-24T06:02:12.183Z,135.40
2018-03-24T06:04:40.546Z,175.03
2018-03-24T06:07:08.102Z,140.33
2018-03-24T06:09:35.666Z,142.67
2018-03-24T06:12:03.206Z,112.90
2018-03-24T06:14:31.526Z,128.40
2018-03-24T06:16:59.048Z,116.50
2018-03-24T06:19:26.596Z,93.73
2018-03-24T06:21:54.135Z,93.20
2018-03-24T06:24:22.452Z,94.03
2018-03-24T06:26:49.973Z,86.90
2018-03-24T06:29:17.530Z,90.97
2018-03-24T06:31:45.525Z,80.90
2018-03-24T06:34:13.072Z,93.27
2018-03-24T06:36:46.054Z,93.43
2018-03-24T06:39:14.358Z,78.37
2018-03-24T06:41:41.885Z,67.13
2018-03-24T06:44:10.201Z,72.97
2018-03-24T06:46:37.726Z,65.00
2018-03-24T06:49:06.037Z,76.20
2018-03-24T06:51:33.561Z,62.27
2018-03-24T06:54:01.869Z,69.40
2018-03-24T06:56:29.400Z,68.27
2018-03-24T06:58:57.718Z,61.73
2018-03-24T07:01:25.254Z,61.03
2018-03-24T07:03:52.822Z,63.53
2018-03-24T07:06:20.349Z,80.03
2018-03-24T07:08:47.933Z,61.77
2018-03-24T07:11:15.473Z,57.60
2018-03-24T07:13:43.027Z,54.80
2018-03-24T07:16:11.322Z,59.43
2018-03-24T07:18:38.869Z,59.27
2018-03-24T07:21:06.405Z,55.83
2018-03-24T07:23:34.702Z,52.10
2018-03-24T07:26:02.241Z,52.27
2018-03-24T07:28:30.542Z,53.53
2018-03-24T07:30:58.869Z,54.43
2018-03-24T07:33:26.406Z,56.13
2018-03-24T07:35:53.950Z,49.47
2018-03-24T07:38:21.485Z,55.00
2018-03-24T07:40:49.030Z,58.27
2018-03-24T07:43:17.329Z,55.47
2018-03-24T07:45:44.885Z,46.00
2018-03-24T07:48:12.420Z,48.57
2018-03-24T07:50:40.736Z,53.13
2018-03-24T07:53:08.260Z,47.77
2018-03-24T07:55:36.574Z,49.17
2018-03-24T07:58:04.104Z,47.83
2018-03-24T08:00:31.653Z,47.50
2018-03-24T08:02:59.949Z,50.37
2018-03-24T08:05:27.501Z,45.77
2018-03-24T08:07:55.029Z,48.07
2018-03-24T08:10:22.577Z,41.97
2018-03-24T08:12:50.106Z,45.57
2018-03-24T08:15:17.666Z,48.93
2018-03-24T08:17:45.189Z,41.20
2018-03-24T08:20:12.730Z,42.70
2018-03-24T08:22:41.029Z,38.80
2018-03-24T08:25:08.576Z,42.07
2018-03-24T08:27:36.880Z,41.80
2018-03-24T08:30:04.483Z,42.67
2018-03-24T08:32:32.039Z,42.57
2018-03-24T08:34:59.586Z,40.33
2018-03-24T08:37:27.115Z,35.27
2018-03-24T08:39:54.685Z,37.70
2018-03-24T08:42:22.216Z,39.90
2018-03-24T08:44:49.768Z,38.10
2018-03-24T08:47:17.306Z,38.10
2018-03-24T08:49:45.626Z,34.97
2018-03-24T08:52:28.655Z,38.83
2018-03-24T08:54:56.198Z,37.50
2018-03-24T08:57:23.728Z,35.40
2018-03-24T08:59:52.042Z,33.20
2018-03-24T09:02:40.013Z,33.07
2018-03-24T09:05:07.573Z,33.77
2018-03-24T09:07:35.101Z,32.63
2018-03-24T09:10:02.659Z,32.72
2018-03-24T09:12:30.199Z,36.72
2018-03-24T09:14:57.766Z,33.88
2018-03-24T09:17:25.300Z,33.63
2018-03-24T09:19:52.861Z,31.60
2018-03-24T09:22:20.419Z,30.92
2018-03-24T09:24:47.994Z,29.05
2018-03-24T09:27:15.646Z,30.00
2018-03-24T09:29:43.985Z,31.35
2018-03-24T09:32:11.527Z,29.75
2018-03-24T09:34:39.119Z,30.30
2018-03-24T09:37:07.418Z,32.10
2018-03-24T09:39:35.118Z,28.52
2018-03-24T09:42:02.654Z,31.30
2018-03-24T09:44:31.150Z,31.55
2018-03-24T09:46:58.686Z,29.80
2018-03-24T09:49:26.224Z,30.10
2018-03-24T09:51:54.548Z,26.90
2018-03-24T09:54:22.072Z,28.17
2018-03-24T09:56:49.630Z,28.60
2018-03-24T09:59:17.202Z,33.53
2018-03-24T10:01:45.501Z,31.53
2018-03-24T10:04:13.082Z,27.03
2018-03-24T10:06:40.629Z,25.87
2018-03-24T10:09:08.204Z,25.93
2018-03-24T10:11:35.801Z,30.03
2018-03-24T10:14:03.338Z,21.50
2018-03-24T10:16:31.676Z,26.20
2018-03-24T10:18:59.218Z,28.37
2018-03-24T10:24:49.511Z,22.00
2018-03-24T10:27:17.029Z,25.13
2018-03-24T10:29:44.561Z,22.03
2018-03-24T10:32:12.110Z,23.57
2018-03-24T10:34:39.641Z,24.73
2018-03-24T10:37:07.191Z,21.10
2018-03-24T10:39:34.727Z,21.00
2018-03-24T10:42:03.044Z,19.97
2018-03-24T10:44:30.581Z,19.77
2018-03-24T10:46:58.129Z,19.27
2018-03-24T10:49:26.422Z,18.53
2018-03-24T10:51:53.989Z,17.00
2018-03-24T10:54:21.525Z,20.13
2018-03-24T10:56:49.836Z,15.57
2018-03-24T10:59:17.369Z,20.40
2018-03-24T11:01:44.921Z,15.83
2018-03-24T11:04:13.257Z,17.57
2018-03-24T11:06:40.781Z,15.23
2018-03-24T11:09:08.318Z,14.70
2018-03-24T11:11:35.866Z,15.90
2018-03-24T11:14:04.166Z,14.07
2018-03-24T11:16:31.737Z,16.57
2018-03-24T11:18:59.262Z,15.93
2018-03-24T11:21:27.826Z,18.30
2018-03-24T11:23:55.361Z,16.23
2018-03-24T11:26:23.655Z,16.90
2018-03-24T11:28:51.300Z,17.67
2018-03-24T11:31:19.675Z,17.33
2018-03-24T11:33:47.216Z,17.53
2018-03-24T11:36:14.802Z,19.43
2018-03-24T11:38:42.358Z,16.53
2018-03-24T11:41:09.949Z,16.63
2018-03-24T11:43:38.277Z,17.23
2018-03-24T11:46:05.851Z,17.83
2018-03-24T11:48:33.430Z,17.97
2018-03-24T11:51:01.783Z,17.27
2018-03-24T11:53:41.154Z,15.67
2018-03-24T11:56:09.523Z,19.50
2018-03-24T11:58:37.076Z,18.73
2018-03-24T12:01:04.629Z,18.30
2018-03-24T12:03:32.214Z,17.43
2018-03-24T12:05:59.776Z,20.60
2018-03-24T12:08:28.130Z,19.00
2018-03-24T12:10:56.452Z,18.43
2018-03-24T12:13:24.027Z,24.00
2018-03-24T12:15:51.585Z,19.77
2018-03-24T12:18:19.187Z,20.13
2018-03-24T12:20:46.734Z,21.37
2018-03-24T12:23:14.364Z,20.63
2018-03-24T12:25:41.931Z,20.50
2018-03-24T12:28:09.518Z,18.40
2018-03-24T12:30:37.053Z,22.17
2018-03-24T12:33:04.618Z,21.87
2018-03-24T12:35:32.153Z,20.73
2018-03-24T12:37:59.715Z,26.53
2018-03-24T12:40:27.239Z,22.13
2018-03-24T12:42:54.812Z,23.03
2018-03-24T12:45:22.373Z,23.20
2018-03-24T12:47:50.145Z,23.17
2018-03-24T12:50:17.673Z,22.57
2018-03-24T12:52:45.274Z,21.03
2018-03-24T12:55:12.822Z,20.37
2018-03-24T12:57:40.387Z,19.87
2018-03-24T13:00:07.912Z,19.63
2018-03-24T13:02:35.464Z,17.53
2018-03-24T13:05:03.774Z,18.47
2018-03-24T13:07:31.331Z,17.33
2018-03-24T13:09:58.874Z,19.03
2018-03-24T13:12:26.430Z,19.63
2018-03-24T13:14:53.977Z,18.97
2018-03-24T13:17:22.300Z,18.43
2018-03-24T13:19:49.843Z,19.50
2018-03-24T13:22:17.416Z,20.00
2018-03-24T13:24:44.950Z,19.90
2018-03-24T13:27:12.501Z,20.10
2018-03-24T13:29:40.046Z,17.33
2018-03-24T13:32:08.365Z,16.67
2018-03-24T13:34:35.902Z,19.62
2018-03-24T13:37:03.457Z,18.17
2018-03-24T13:39:31.047Z,18.77
2018-03-24T13:41:58.617Z,19.02
2018-03-24T13:44:26.190Z,17.20
2018-03-24T13:46:53.790Z,19.17
2018-03-24T13:49:21.336Z,15.85
2018-03-24T13:51:48.903Z,18.12
2018-03-24T13:54:16.488Z,22.00
2018-03-24T13:56:44.818Z,18.60
2018-03-24T13:59:13.190Z,20.23
2018-03-24T14:01:41.502Z,24.40
2018-03-24T14:04:09.071Z,20.90
2018-03-24T14:06:36.639Z,20.43
2018-03-24T14:09:04.218Z,19.40
2018-03-24T14:11:31.775Z,38.57
2018-03-24T14:13:59.335Z,19.93
2018-03-24T14:16:26.893Z,17.63
2018-03-24T14:18:54.473Z,18.03
2018-03-24T14:21:22.013Z,16.67
2018-03-24T14:23:49.635Z,19.23
2018-03-24T14:26:17.149Z,18.67
2018-03-24T14:28:45.485Z,17.63
2018-03-24T14:31:13.037Z,20.07
2018-03-24T14:33:40.601Z,18.17
2018-03-24T14:36:08.149Z,18.10
2018-03-24T14:38:35.765Z,19.10
2018-03-24T14:41:03.301Z,19.03
2018-03-24T14:43:30.867Z,18.03
2018-03-24T14:45:58.431Z,17.83
2018-03-24T14:48:26.236Z,17.43
2018-03-24T14:50:53.802Z,18.57
2018-03-24T14:53:21.394Z,19.17
2018-03-24T14:55:49.016Z,16.73
2018-03-24T14:58:16.586Z,17.43
2018-03-24T15:00:44.168Z,18.93
2018-03-24T15:03:11.807Z,19.90
2018-03-24T15:05:39.358Z,17.40
2018-03-24T15:08:06.959Z,15.23
2018-03-24T15:10:34.517Z,17.17
2018-03-24T15:13:02.125Z,17.10
2018-03-24T15:15:29.758Z,17.70
2018-03-24T15:17:58.147Z,20.13
2018-03-24T15:20:25.814Z,18.60
2018-03-24T15:22:53.413Z,18.37
2018-03-24T15:25:21.516Z,17.60
2018-03-24T15:27:49.263Z,20.80
2018-03-24T15:30:28.630Z,19.30
2018-03-24T15:33:08.750Z,18.73
2018-03-24T15:35:37.370Z,18.30
2018-03-24T15:38:05.803Z,17.20
2018-03-24T15:40:33.386Z,19.10
2018-03-24T15:43:01.198Z,14.27
2018-03-24T15:45:28.947Z,16.13
2018-03-24T15:47:56.526Z,18.57
2018-03-24T15:50:24.181Z,16.57
2018-03-24T15:52:51.838Z,16.90
2018-03-24T15:55:19.432Z,19.00
2018-03-24T15:57:47.021Z,17.07
2018-03-24T16:00:14.600Z,19.10
2018-03-24T16:02:42.962Z,19.93
2018-03-24T16:05:10.542Z,17.57
2018-03-24T16:07:39.001Z,18.97
2018-03-24T16:10:06.622Z,19.93
2018-03-24T16:12:34.247Z,17.20
2018-03-24T16:15:01.845Z,18.57
2018-03-24T16:17:29.537Z,18.90
2018-03-24T16:19:57.171Z,19.00
2018-03-24T16:22:24.782Z,19.03
2018-03-24T16:24:52.426Z,19.10
2018-03-24T16:27:19.959Z,20.13
2018-03-24T16:29:47.527Z,18.97
2018-03-24T16:32:15.074Z,18.50
2018-03-24T16:34:42.622Z,20.33
2018-03-24T16:37:10.150Z,19.23
2018-03-24T16:39:37.758Z,20.10
2018-03-24T16:42:05.321Z,20.90
2018-03-24T16:44:32.885Z,23.07
2018-03-24T16:47:00.425Z,20.83
2018-03-24T16:49:27.978Z,17.50
2018-03-24T16:51:55.509Z,18.33
2018-03-24T16:54:23.053Z,19.20
2018-03-24T16:56:51.341Z,20.60
2018-03-24T16:59:18.898Z,23.50
2018-03-24T17:01:46.430Z,26.23
2018-03-24T17:04:14.757Z,23.03
2018-03-24T17:06:42.289Z,22.53
2018-03-24T17:09:09.841Z,19.30
2018-03-24T17:11:37.432Z,18.03
2018-03-24T17:14:04.953Z,26.87
2018-03-24T17:16:33.270Z,17.43
2018-03-24T17:19:00.831Z,17.67
2018-03-24T17:21:28.356Z,16.00
2018-03-24T17:23:55.922Z,16.30
2018-03-24T17:26:23.479Z,15.90
2018-03-24T17:28:51.847Z,15.67
2018-03-24T17:31:19.382Z,14.03
2018-03-24T17:33:46.980Z,14.83
2018-03-24T17:36:14.573Z,15.30
2018-03-24T17:38:42.158Z,16.40
2018-03-24T17:41:10.503Z,16.20
2018-03-24T17:43:38.050Z,12.17
2018-03-24T17:46:05.640Z,13.73
2018-03-24T17:48:33.208Z,14.90
2018-03-24T17:51:01.562Z,17.37
2018-03-24T17:53:29.131Z,19.33
2018-03-24T17:55:56.690Z,18.03
2018-03-24T17:58:24.238Z,20.30
2018-03-24T18:00:51.828Z,20.40
2018-03-24T18:03:20.143Z,20.13
2018-03-24T18:05:47.709Z,18.07
2018-03-24T18:08:15.268Z,23.43
2018-03-24T18:10:42.855Z,17.20
2018-03-24T18:13:10.413Z,19.77
2018-03-24T18:15:38.015Z,20.80
2018-03-24T18:18:05.804Z,22.97
2018-03-24T18:20:33.498Z,20.33
2018-03-24T18:23:01.001Z,22.30
2018-03-24T18:25:29.337Z,23.30
2018-03-24T18:27:56.862Z,27.07
2018-03-24T18:30:24.440Z,41.90
2018-03-24T18:32:51.969Z,27.77
2018-03-24T18:35:19.522Z,30.23
2018-03-24T18:37:47.050Z,33.53
2018-03-24T18:40:14.596Z,29.17
2018-03-24T18:42:42.125Z,30.93
2018-03-24T18:45:09.673Z,39.00
2018-03-24T18:47:37.221Z,40.13
2018-03-24T18:50:04.792Z,35.53
2018-03-24T18:52:32.340Z,23.57
2018-03-24T18:54:59.919Z,20.33
2018-03-24T18:57:27.487Z,17.60
2018-03-24T18:59:55.069Z,18.43
2018-03-24T19:02:22.617Z,18.73
2018-03-24T19:04:50.202Z,23.87
2018-03-24T19:07:18.506Z,25.03
2018-03-24T19:09:46.053Z,23.73
2018-03-24T19:12:14.357Z,29.93
2018-03-24T19:14:41.930Z,24.00
2018-03-24T19:17:09.478Z,19.93
2018-03-24T19:19:37.085Z,17.00
2018-03-24T19:22:05.394Z,28.87
2018-03-24T19:24:32.971Z,27.70
2018-03-24T19:27:01.280Z,21.40
2018-03-24T19:29:28.876Z,24.00
2018-03-24T19:31:57.212Z,20.73
2018-03-24T19:34:24.757Z,23.57
2018-03-24T19:36:52.325Z,20.47
2018-03-24T19:39:19.863Z,19.87
2018-03-24T19:41:47.415Z,19.90
2018-03-24T19:44:14.965Z,19.37
2018-03-24T19:46:42.547Z,20.17
2018-03-24T19:49:10.100Z,18.17
2018-03-24T19:51:37.686Z,17.37
2018-03-24T19:54:05.219Z,17.33
2018-03-24T19:56:32.781Z,17.37
2018-03-24T19:59:00.341Z,19.87
2018-03-24T20:01:27.951Z,21.17
2018-03-24T20:03:55.524Z,19.97
2018-03-24T20:06:23.116Z,18.90
2018-03-24T20:08:50.696Z,18.70
2018-03-24T20:11:18.321Z,19.67
2018-03-24T20:13:45.903Z,19.80
2018-03-24T20:16:13.487Z,22.17
2018-03-24T20:18:41.813Z,20.07
2018-03-24T20:21:09.403Z,21.93
2018-03-24T20:23:36.933Z,22.70
2018-03-24T20:26:04.510Z,22.50
2018-03-24T20:28:32.083Z,25.03
2018-03-24T20:30:59.672Z,22.77
2018-03-24T20:33:27.988Z,26.47
2018-03-24T20:35:55.583Z,25.93
2018-03-24T20:38:23.202Z,28.30
2018-03-24T20:40:50.774Z,24.23
2018-03-24T20:43:18.349Z,42.97
2018-03-24T20:45:45.909Z,39.67
2018-03-24T20:48:13.489Z,32.67
2018-03-24T20:50:41.042Z,33.23
2018-03-24T20:53:08.589Z,29.07
2018-03-24T20:55:36.136Z,29.67
2018-03-24T20:58:03.718Z,28.80
2018-03-24T21:00:31.274Z,28.80
2018-03-24T21:02:58.813Z,24.83
2018-03-24T21:05:26.361Z,26.83
2018-03-24T21:07:53.932Z,24.43
2018-03-24T21:10:21.485Z,30.37
2018-03-24T21:12:49.027Z,30.47
2018-03-24T21:15:16.594Z,25.90
2018-03-24T21:17:44.147Z,28.50
2018-03-24T21:20:11.694Z,26.80
2018-03-24T21:22:39.243Z,20.13
2018-03-24T21:25:06.794Z,21.67
2018-03-24T21:27:35.112Z,22.47
2018-03-24T21:30:02.665Z,25.80
2018-03-24T21:32:30.233Z,25.13
2018-03-24T21:34:57.779Z,27.47
2018-03-24T21:37:25.334Z,28.97
2018-03-24T21:39:52.874Z,26.63
2018-03-24T21:42:20.451Z,28.97
2018-03-24T21:44:48.002Z,25.00
2018-03-24T21:47:15.627Z,24.63
2018-03-24T21:49:43.956Z,32.43
2018-03-24T21:52:11.540Z,30.17
2018-03-24T21:54:39.094Z,31.57
2018-03-24T21:57:06.649Z,37.27
2018-03-24T21:59:34.183Z,35.00
2018-03-24T22:02:01.737Z,32.70
2018-03-24T22:04:29.278Z,43.40
2018-03-24T22:06:56.843Z,45.17
2018-03-24T22:09:24.380Z,45.30
2018-03-24T22:11:52.698Z,51.50
2018-03-24T22:14:20.229Z,47.27
2018-03-24T22:16:48.546Z,41.27
2018-03-24T22:19:16.093Z,41.30
2018-03-24T22:21:43.658Z,37.03
2018-03-24T22:24:11.196Z,41.00
2018-03-24T22:26:38.749Z,38.93
2018-03-24T22:29:06.302Z,38.17
2018-03-24T22:31:33.861Z,32.93
2018-03-24T22:34:01.398Z,37.37
2018-03-24T22:36:29.718Z,39.90
2018-03-24T22:38:58.022Z,43.50
2018-03-24T22:41:25.577Z,33.77
2018-03-24T22:43:53.113Z,37.13
2018-03-24T22:46:20.675Z,50.73
2018-03-24T22:48:48.209Z,42.10
2018-03-24T22:51:15.768Z,42.77
2018-03-24T22:53:43.309Z,40.73
2018-03-24T22:56:11.604Z,27.87
2018-03-24T22:58:39.185Z,35.93
2018-03-24T23:01:06.721Z,37.20
2018-03-24T23:03:34.268Z,41.60
2018-03-24T23:06:02.571Z,34.43
2018-03-24T23:08:30.133Z,34.20
2018-03-24T23:10:57.678Z,40.70
2018-03-24T23:13:25.233Z,38.27
2018-03-24T23:15:52.778Z,40.27
2018-03-24T23:18:20.380Z,35.10
2018-03-24T23:20:47.922Z,36.60
2018-03-24T23:23:26.804Z,40.10
2018-03-24T23:25:55.100Z,34.83
2018-03-24T23:28:22.721Z,37.10
2018-03-24T23:30:50.210Z,40.93
2018-03-24T23:33:17.763Z,40.63
2018-03-24T23:35:46.055Z,33.60
2018-03-24T23:38:13.625Z,39.40
2018-03-24T23:40:41.161Z,34.50
2018-03-24T23:43:09.477Z,35.47
2018-03-24T23:45:37.046Z,40.40
2018-03-24T23:48:04.635Z,42.97
2018-03-24T23:50:32.209Z,40.70
2018-03-24T23:53:00.526Z,35.73
2018-03-24T23:55:28.057Z,35.67
2018-03-24T23:57:56.383Z,35.70
